createdAt,value
2018-11-06T00:00:27.334Z,97356.61
2018-11-06T00:00:58.920Z,97348.05
2018-11-06T00:01:30.525Z,97357.87
2018-11-06T00:02:02.134Z,97355.29
2018-11-06T00:02:33.723Z,97359.14
2018-11-06T00:03:05.323Z,97356.09
2018-11-06T00:03:36.917Z,97364.20
2018-11-06T00:04:08.506Z,97362.14
2018-11-06T00:04:40.119Z,97357.36
2018-11-06T00:05:11.724Z,97358.20
2018-11-06T00:05:43.333Z,97353.50
2018-11-06T00:06:14.934Z,97355.20
2018-11-06T00:06:46.535Z,97350.45
2018-11-06T00:07:18.123Z,97344.55
2018-11-06T00:07:49.730Z,97361.17
2018-11-06T00:08:21.333Z,97352.23
2018-11-06T00:08:52.933Z,97344.55
2018-11-06T00:09:24.604Z,97359.05
2018-11-06T00:09:56.180Z,97352.23
2018-11-06T00:10:27.768Z,97333.07
2018-11-06T00:10:59.370Z,97340.31
2018-11-06T00:11:30.963Z,97339.02
2018-11-06T00:12:02.567Z,97345.84
2018-11-06T00:12:34.162Z,97346.28
2018-11-06T00:13:05.752Z,97326.67
2018-11-06T00:13:37.354Z,97347.21
2018-11-06T00:14:08.948Z,97340.47
2018-11-06T00:14:40.564Z,97347.63
2018-11-06T00:15:12.151Z,97338.26
2018-11-06T00:15:43.744Z,97334.42
2018-11-06T00:16:15.328Z,97341.66
2018-11-06T00:16:46.930Z,97341.67
2018-11-06T00:17:18.520Z,97330.58
2018-11-06T00:17:50.111Z,97346.77
2018-11-06T00:18:21.695Z,97339.05
2018-11-06T00:18:53.294Z,97353.54
2018-11-06T00:19:24.937Z,97333.07
2018-11-06T00:19:56.514Z,97338.61
2018-11-06T00:20:28.095Z,97343.30
2018-11-06T00:20:59.689Z,97332.21
2018-11-06T00:21:31.289Z,97343.28
2018-11-06T00:22:02.879Z,97338.59
2018-11-06T00:22:34.462Z,97344.11
2018-11-06T00:23:06.052Z,97323.22
2018-11-06T00:23:37.640Z,97338.56
2018-11-06T00:24:09.218Z,97342.83
2018-11-06T00:24:40.835Z,97327.82
2018-11-06T00:25:12.429Z,97336.28
2018-11-06T00:25:44.023Z,97339.64
2018-11-06T00:26:15.621Z,97332.31
2018-11-06T00:26:47.213Z,97320.72
2018-11-06T00:27:18.808Z,97321.98
2018-11-06T00:27:50.409Z,97329.20
2018-11-06T00:28:22.000Z,97328.76
2018-11-06T00:28:53.592Z,97333.41
2018-11-06T00:29:25.199Z,97323.56
2018-11-06T00:29:56.819Z,97323.98
2018-11-06T00:30:28.430Z,97322.73
2018-11-06T00:31:00.039Z,97328.66
2018-11-06T00:31:31.671Z,97332.08
2018-11-06T00:32:03.278Z,97323.13
2018-11-06T00:32:34.883Z,97330.38
2018-11-06T00:33:06.500Z,97313.31
2018-11-06T00:33:38.088Z,97338.41
2018-11-06T00:34:09.742Z,97321.20
2018-11-06T00:34:41.336Z,97338.36
2018-11-06T00:35:12.924Z,97344.84
2018-11-06T00:35:44.512Z,97345.38
2018-11-06T00:36:16.106Z,97341.57
2018-11-06T00:36:47.692Z,97348.11
2018-11-06T00:37:19.279Z,97343.15
2018-11-06T00:37:50.867Z,97349.03
2018-11-06T00:38:22.469Z,97344.33
2018-11-06T00:38:54.080Z,97354.84
2018-11-06T00:39:25.675Z,97342.77
2018-11-06T00:39:57.277Z,97346.48
2018-11-06T00:40:28.865Z,97350.97
2018-11-06T00:41:00.453Z,97345.80
2018-11-06T00:41:32.026Z,97347.53
2018-11-06T00:42:03.612Z,97345.45
2018-11-06T00:42:35.195Z,97349.83
2018-11-06T00:43:06.803Z,97344.86
2018-11-06T00:43:38.382Z,97334.84
2018-11-06T00:44:09.967Z,97330.83
2018-11-06T00:44:41.552Z,97346.81
2018-11-06T00:45:13.150Z,97344.56
2018-11-06T00:45:44.737Z,97343.59
2018-11-06T00:46:16.323Z,97346.90
2018-11-06T00:46:47.911Z,97347.31
2018-11-06T00:47:19.510Z,97339.55
2018-11-06T00:47:51.117Z,97348.83
2018-11-06T00:48:22.709Z,97343.20
2018-11-06T00:48:54.309Z,97351.28
2018-11-06T00:49:25.915Z,97346.52
2018-11-06T00:49:57.526Z,97351.63
2018-11-06T00:50:29.160Z,97340.11
2018-11-06T00:51:00.747Z,97348.23
2018-11-06T00:51:32.336Z,97353.23
2018-11-06T00:52:03.942Z,97344.69
2018-11-06T00:52:35.545Z,97366.45
2018-11-06T00:53:07.132Z,97363.09
2018-11-06T00:53:38.724Z,97348.13
2018-11-06T00:54:10.322Z,97345.64
2018-11-06T00:54:41.928Z,97355.37
2018-11-06T00:55:13.537Z,97358.37
2018-11-06T00:55:45.162Z,97349.83
2018-11-06T00:56:16.738Z,97351.97
2018-11-06T00:56:48.313Z,97356.72
2018-11-06T00:57:19.896Z,97353.32
2018-11-06T00:57:51.494Z,97356.30
2018-11-06T00:58:23.102Z,97360.14
2018-11-06T00:58:54.706Z,97347.34
2018-11-06T00:59:26.317Z,97357.60
2018-11-06T00:59:58.347Z,97354.19
2018-11-06T01:00:29.962Z,97346.94
2018-11-06T01:01:01.551Z,97353.34
2018-11-06T01:01:33.140Z,97356.81
2018-11-06T01:02:04.731Z,97348.30
2018-11-06T01:02:36.337Z,97354.70
2018-11-06T01:03:07.942Z,97349.59
2018-11-06T01:03:39.543Z,97349.67
2018-11-06T01:04:11.145Z,97357.81
2018-11-06T01:04:42.735Z,97347.57
2018-11-06T01:05:14.334Z,97355.23
2018-11-06T01:05:45.964Z,97368.12
2018-11-06T01:06:17.571Z,97358.76
2018-11-06T01:06:49.153Z,97353.66
2018-11-06T01:07:20.754Z,97354.14
2018-11-06T01:07:52.357Z,97354.58
2018-11-06T01:08:23.967Z,97356.27
2018-11-06T01:08:55.573Z,97356.27
2018-11-06T01:09:27.155Z,97359.71
2018-11-06T01:09:58.746Z,97363.98
2018-11-06T01:10:30.354Z,97357.99
2018-11-06T01:11:01.976Z,97354.58
2018-11-06T01:11:33.578Z,97364.31
2018-11-06T01:12:05.165Z,97366.00
2018-11-06T01:12:36.762Z,97362.56
2018-11-06T01:13:08.366Z,97352.34
2018-11-06T01:13:39.976Z,97360.78
2018-11-06T01:14:11.568Z,97361.20
2018-11-06T01:14:43.162Z,97366.25
2018-11-06T01:15:14.752Z,97367.53
2018-11-06T01:15:46.464Z,97353.41
2018-11-06T01:16:18.042Z,97362.83
2018-11-06T01:16:49.628Z,97359.41
2018-11-06T01:17:21.220Z,97358.11
2018-11-06T01:17:52.810Z,97355.09
2018-11-06T01:18:24.409Z,97356.77
2018-11-06T01:18:55.999Z,97360.58
2018-11-06T01:19:27.584Z,97360.58
2018-11-06T01:19:59.186Z,97367.81
2018-11-06T01:20:30.776Z,97357.14
2018-11-06T01:21:02.353Z,97353.77
2018-11-06T01:21:33.958Z,97354.20
2018-11-06T01:22:05.543Z,97349.55
2018-11-06T01:22:37.136Z,97356.37
2018-11-06T01:23:08.723Z,97352.92
2018-11-06T01:23:40.316Z,97363.16
2018-11-06T01:24:11.908Z,97353.84
2018-11-06T01:24:43.495Z,97370.05
2018-11-06T01:25:15.103Z,97355.97
2018-11-06T01:25:46.724Z,97355.53
2018-11-06T01:26:18.310Z,97355.99
2018-11-06T01:26:49.905Z,97355.99
2018-11-06T01:27:21.509Z,97359.83
2018-11-06T01:27:53.114Z,97370.09
2018-11-06T01:28:24.742Z,97357.72
2018-11-06T01:28:56.342Z,97364.16
2018-11-06T01:29:27.942Z,97360.34
2018-11-06T01:29:59.541Z,97374.41
2018-11-06T01:30:31.138Z,97371.44
2018-11-06T01:31:02.718Z,97366.34
2018-11-06T01:31:34.303Z,97372.39
2018-11-06T01:32:05.893Z,97354.08
2018-11-06T01:32:37.501Z,97369.06
2018-11-06T01:33:09.110Z,97360.57
2018-11-06T01:33:40.958Z,97328.89
2018-11-06T01:34:12.551Z,97364.06
2018-11-06T01:34:44.142Z,97376.85
2018-11-06T01:35:15.726Z,97368.34
2018-11-06T01:35:47.319Z,97376.03
2018-11-06T01:36:18.950Z,97370.50
2018-11-06T01:36:50.544Z,97371.76
2018-11-06T01:37:22.122Z,97370.06
2018-11-06T01:37:53.697Z,97372.58
2018-11-06T01:38:25.273Z,97371.64
2018-11-06T01:38:56.850Z,97369.92
2018-11-06T01:39:28.435Z,97374.95
2018-11-06T01:40:00.026Z,97360.45
2018-11-06T01:40:31.638Z,97370.63
2018-11-06T01:41:03.261Z,97381.70
2018-11-06T01:41:34.858Z,97375.30
2018-11-06T01:42:06.453Z,97371.88
2018-11-06T01:42:38.058Z,97377.02
2018-11-06T01:43:09.662Z,97369.44
2018-11-06T01:43:41.255Z,97376.54
2018-11-06T01:44:12.844Z,97365.39
2018-11-06T01:44:44.446Z,97380.73
2018-11-06T01:45:16.167Z,97366.66
2018-11-06T01:45:47.757Z,97373.45
2018-11-06T01:46:19.371Z,97368.28
2018-11-06T01:46:50.959Z,97372.09
2018-11-06T01:47:22.544Z,97360.16
2018-11-06T01:47:54.140Z,97368.26
2018-11-06T01:48:25.717Z,97364.40
2018-11-06T01:48:57.320Z,97363.56
2018-11-06T01:49:28.912Z,97358.44
2018-11-06T01:50:00.507Z,97368.70
2018-11-06T01:50:32.096Z,97363.56
2018-11-06T01:51:03.711Z,97357.66
2018-11-06T01:51:35.295Z,97364.08
2018-11-06T01:52:06.879Z,97364.53
2018-11-06T01:52:38.478Z,97353.95
2018-11-06T01:53:10.057Z,97359.59
2018-11-06T01:53:41.643Z,97359.18
2018-11-06T01:54:13.224Z,97359.16
2018-11-06T01:54:44.802Z,97354.91
2018-11-06T01:55:16.378Z,97362.58
2018-11-06T01:55:47.965Z,97351.59
2018-11-06T01:56:19.594Z,97351.08
2018-11-06T01:56:51.193Z,97350.72
2018-11-06T01:57:22.788Z,97352.85
2018-11-06T01:57:54.390Z,97347.76
2018-11-06T01:58:25.994Z,97355.47
2018-11-06T01:58:57.598Z,97357.66
2018-11-06T01:59:29.201Z,97338.91
2018-11-06T02:00:00.824Z,97342.77
2018-11-06T02:00:32.428Z,97342.41
2018-11-06T02:01:04.044Z,97345.38
2018-11-06T02:01:35.627Z,97344.91
2018-11-06T02:02:07.226Z,97334.31
2018-11-06T02:02:38.819Z,97338.56
2018-11-06T02:03:10.425Z,97334.73
2018-11-06T02:03:42.030Z,97330.05
2018-11-06T02:04:13.623Z,97333.05
2018-11-06T02:04:45.216Z,97327.07
2018-11-06T02:05:16.823Z,97350.95
2018-11-06T02:05:48.424Z,97319.39
2018-11-06T02:06:20.030Z,97321.95
2018-11-06T02:06:51.634Z,97319.82
2018-11-06T02:07:23.243Z,97322.80
2018-11-06T02:07:54.827Z,97318.53
2018-11-06T02:08:26.434Z,97315.54
2018-11-06T02:08:58.042Z,97310.00
2018-11-06T02:09:29.636Z,97321.95
2018-11-06T02:10:01.222Z,97321.95
2018-11-06T02:10:32.824Z,97324.09
2018-11-06T02:11:04.439Z,97307.06
2018-11-06T02:11:36.027Z,97312.66
2018-11-06T02:12:07.621Z,97310.98
2018-11-06T02:12:39.218Z,97323.37
2018-11-06T02:13:10.809Z,97316.97
2018-11-06T02:13:42.397Z,97318.72
2018-11-06T02:14:14.005Z,97313.61
2018-11-06T02:14:45.596Z,97311.05
2018-11-06T02:15:17.204Z,97319.09
2018-11-06T02:15:48.805Z,97311.84
2018-11-06T02:16:20.464Z,97304.14
2018-11-06T02:16:52.067Z,97307.12
2018-11-06T02:17:23.666Z,97313.95
2018-11-06T02:17:55.255Z,97309.72
2018-11-06T02:18:26.853Z,97302.04
2018-11-06T02:18:58.443Z,97312.77
2018-11-06T02:19:30.022Z,97306.81
2018-11-06T02:20:01.616Z,97317.47
2018-11-06T02:20:33.204Z,97297.00
2018-11-06T02:21:04.833Z,97311.09
2018-11-06T02:21:36.427Z,97303.91
2018-11-06T02:22:08.015Z,97320.12
2018-11-06T02:22:39.614Z,97323.95
2018-11-06T02:23:11.217Z,97313.67
2018-11-06T02:23:42.824Z,97315.81
2018-11-06T02:24:14.416Z,97308.55
2018-11-06T02:24:46.022Z,97297.55
2018-11-06T02:25:17.622Z,97310.25
2018-11-06T02:25:49.221Z,97317.92
2018-11-06T02:26:20.845Z,97312.37
2018-11-06T02:26:52.458Z,97313.20
2018-11-06T02:27:24.062Z,97314.09
2018-11-06T02:27:55.651Z,97297.46
2018-11-06T02:28:27.226Z,97311.95
2018-11-06T02:28:58.812Z,97306.47
2018-11-06T02:29:30.408Z,97309.41
2018-11-06T02:30:02.005Z,97312.02
2018-11-06T02:30:33.601Z,97296.25
2018-11-06T02:31:05.210Z,97305.13
2018-11-06T02:31:36.804Z,97304.34
2018-11-06T02:32:08.394Z,97314.09
2018-11-06T02:32:39.989Z,97319.19
2018-11-06T02:33:11.592Z,97318.74
2018-11-06T02:33:43.195Z,97318.67
2018-11-06T02:34:14.791Z,97318.67
2018-11-06T02:34:46.387Z,97321.65
2018-11-06T02:35:17.996Z,97328.42
2018-11-06T02:35:49.593Z,97315.54
2018-11-06T02:36:21.197Z,97312.93
2018-11-06T02:36:52.784Z,97318.00
2018-11-06T02:37:24.362Z,97315.70
2018-11-06T02:37:55.940Z,97317.36
2018-11-06T02:38:27.532Z,97310.88
2018-11-06T02:38:59.120Z,97312.13
2018-11-06T02:39:30.720Z,97306.95
2018-11-06T02:40:02.306Z,97317.17
2018-11-06T02:40:33.899Z,97310.75
2018-11-06T02:41:05.612Z,97313.75
2018-11-06T02:41:37.209Z,97315.05
2018-11-06T02:42:08.810Z,97318.03
2018-11-06T02:42:40.395Z,97330.83
2018-11-06T02:43:11.988Z,97315.05
2018-11-06T02:43:43.589Z,97332.96
2018-11-06T02:44:15.169Z,97322.80
2018-11-06T02:44:46.768Z,97322.38
2018-11-06T02:45:18.360Z,97329.66
2018-11-06T02:45:49.955Z,97331.78
2018-11-06T02:46:21.567Z,97325.37
2018-11-06T02:46:53.173Z,97320.28
2018-11-06T02:47:24.778Z,97331.75
2018-11-06T02:47:56.368Z,97336.03
2018-11-06T02:48:27.966Z,97327.09
2018-11-06T02:48:59.552Z,97331.02
2018-11-06T02:49:31.144Z,97336.64
2018-11-06T02:50:02.728Z,97330.80
2018-11-06T02:50:34.361Z,97339.75
2018-11-06T02:51:05.966Z,97336.87
2018-11-06T02:51:37.590Z,97338.61
2018-11-06T02:52:09.169Z,97336.58
2018-11-06T02:52:40.775Z,97324.16
2018-11-06T02:53:12.369Z,97334.95
2018-11-06T02:53:43.956Z,97334.53
2018-11-06T02:54:15.545Z,97330.70
2018-11-06T02:54:47.137Z,97328.98
2018-11-06T02:55:18.734Z,97327.31
2018-11-06T02:55:50.374Z,97326.11
2018-11-06T02:56:21.967Z,97328.59
2018-11-06T02:56:53.570Z,97330.77
2018-11-06T02:57:25.157Z,97338.47
2018-11-06T02:57:56.745Z,97329.88
2018-11-06T02:58:28.337Z,97342.63
2018-11-06T02:58:59.929Z,97337.02
2018-11-06T02:59:31.528Z,97320.69
2018-11-06T03:00:03.140Z,97337.44
2018-11-06T03:17:07.952Z,97325.45
2018-11-06T03:17:39.558Z,97327.95
2018-11-06T03:18:11.151Z,97330.93
2018-11-06T03:18:42.757Z,97332.61
2018-11-06T03:19:14.426Z,97333.40
2018-11-06T03:19:46.020Z,97337.70
2018-11-06T03:20:17.608Z,97334.75
2018-11-06T03:20:49.201Z,97327.09
2018-11-06T03:21:20.809Z,97325.89
2018-11-06T03:21:52.528Z,97327.61
2018-11-06T03:22:24.130Z,97322.51
2018-11-06T03:22:55.724Z,97321.74
2018-11-06T03:23:27.315Z,97321.34
2018-11-06T03:23:58.908Z,97325.23
2018-11-06T03:24:30.487Z,97320.58
2018-11-06T03:25:02.096Z,97322.30
2018-11-06T03:25:33.688Z,97316.76
2018-11-06T03:26:05.279Z,97323.20
2018-11-06T03:26:36.868Z,97329.64
2018-11-06T03:27:08.515Z,97326.64
2018-11-06T03:27:40.081Z,97319.80
2018-11-06T03:28:11.668Z,97324.06
2018-11-06T03:28:43.269Z,97331.67
2018-11-06T03:29:14.859Z,97323.16
2018-11-06T03:29:46.451Z,97330.39
2018-11-06T03:30:18.040Z,97323.16
2018-11-06T03:30:49.642Z,97290.30
2018-11-06T03:31:21.247Z,97318.92
2018-11-06T03:31:52.860Z,97328.77
2018-11-06T03:32:24.499Z,97316.39
2018-11-06T03:32:56.089Z,97323.20
2018-11-06T03:33:27.690Z,97328.74
2018-11-06T03:33:59.292Z,97325.77
2018-11-06T03:34:30.888Z,97322.27
2018-11-06T03:35:02.470Z,97332.84
2018-11-06T03:35:34.061Z,97329.84
2018-11-06T03:36:05.656Z,97320.79
2018-11-06T03:36:37.248Z,97328.01
2018-11-06T03:37:08.881Z,97328.81
2018-11-06T03:37:40.473Z,97331.80
2018-11-06T03:38:12.064Z,97319.00
2018-11-06T03:38:43.674Z,97328.42
2018-11-06T03:39:15.274Z,97326.67
2018-11-06T03:39:46.879Z,97320.70
2018-11-06T03:40:18.481Z,97326.66
2018-11-06T03:40:50.068Z,97325.68
2018-11-06T03:41:21.669Z,97319.00
2018-11-06T03:41:53.255Z,97316.94
2018-11-06T03:42:24.877Z,97328.50
2018-11-06T03:42:56.463Z,97332.80
2018-11-06T03:43:28.055Z,97324.83
2018-11-06T03:43:59.653Z,97322.33
2018-11-06T03:44:31.253Z,97326.19
2018-11-06T03:45:03.505Z,97325.71
2018-11-06T03:45:35.100Z,97327.71
2018-11-06T03:46:06.706Z,97328.41
2018-11-06T03:46:38.305Z,97327.83
2018-11-06T03:47:09.919Z,97323.86
2018-11-06T03:47:41.508Z,97330.39
2018-11-06T03:48:13.110Z,97318.64
2018-11-06T03:48:44.718Z,97333.72
2018-11-06T03:49:16.314Z,97329.98
2018-11-06T03:49:47.903Z,97336.49
2018-11-06T03:50:19.513Z,97320.91
2018-11-06T03:50:51.109Z,97328.13
2018-11-06T03:51:22.692Z,97318.45
2018-11-06T03:51:54.285Z,97333.28
2018-11-06T03:52:25.987Z,97332.93
2018-11-06T03:52:57.589Z,97331.28
2018-11-06T03:53:29.175Z,97334.64
2018-11-06T03:54:00.781Z,97325.13
2018-11-06T03:54:32.366Z,97332.34
2018-11-06T03:55:03.968Z,97331.48
2018-11-06T03:55:35.562Z,97323.81
2018-11-06T03:56:07.149Z,97343.34
2018-11-06T03:56:38.726Z,97334.83
2018-11-06T03:57:10.340Z,97340.78
2018-11-06T03:57:41.923Z,97344.17
2018-11-06T03:58:13.520Z,97343.73
2018-11-06T03:58:45.107Z,97342.44
2018-11-06T03:59:16.709Z,97336.42
2018-11-06T03:59:48.297Z,97338.09
2018-11-06T04:00:19.888Z,97351.61
2018-11-06T04:00:51.508Z,97351.80
2018-11-06T04:01:23.123Z,97343.27
2018-11-06T04:01:54.731Z,97347.53
2018-11-06T04:02:26.337Z,97338.58
2018-11-06T04:02:57.909Z,97339.44
2018-11-06T04:03:29.516Z,97343.69
2018-11-06T04:04:01.122Z,97340.27
2018-11-06T04:04:32.724Z,97330.91
2018-11-06T04:05:04.307Z,97328.30
2018-11-06T04:05:35.891Z,97352.17
2018-11-06T04:06:07.484Z,97339.31
2018-11-06T04:06:39.058Z,97349.12
2018-11-06T04:07:10.687Z,97337.59
2018-11-06T04:07:42.275Z,97357.61
2018-11-06T04:08:13.874Z,97349.03
2018-11-06T04:08:45.453Z,97354.96
2018-11-06T04:09:17.044Z,97345.95
2018-11-06T04:09:48.637Z,97344.64
2018-11-06T04:10:20.231Z,97336.97
2018-11-06T04:10:51.834Z,97348.41
2018-11-06T04:11:23.424Z,97360.34
2018-11-06T04:11:55.016Z,97351.34
2018-11-06T04:12:26.641Z,97346.17
2018-11-06T04:12:58.237Z,97339.77
2018-11-06T04:13:29.821Z,97339.74
2018-11-06T04:14:01.427Z,97357.66
2018-11-06T04:14:33.026Z,97345.23
2018-11-06T04:15:04.606Z,97351.19
2018-11-06T04:15:36.210Z,97345.19
2018-11-06T04:16:07.834Z,97352.52
2018-11-06T04:16:39.423Z,97348.53
2018-11-06T04:17:11.018Z,97346.38
2018-11-06T04:17:42.634Z,97347.66
2018-11-06T04:18:14.220Z,97351.03
2018-11-06T04:18:45.794Z,97354.40
2018-11-06T04:19:17.397Z,97350.13
2018-11-06T04:19:49.002Z,97350.54
2018-11-06T04:20:20.598Z,97339.02
2018-11-06T04:20:52.192Z,97352.22
2018-11-06T04:21:23.780Z,97350.54
2018-11-06T04:21:55.358Z,97340.66
2018-11-06T04:22:26.968Z,97345.33
2018-11-06T04:22:58.574Z,97346.19
2018-11-06T04:23:30.173Z,97337.70
2018-11-06T04:24:01.760Z,97339.87
2018-11-06T04:24:33.348Z,97342.41
2018-11-06T04:25:04.950Z,97339.87
2018-11-06T04:25:36.553Z,97340.31
2018-11-06T04:26:08.166Z,97346.70
2018-11-06T04:26:39.752Z,97333.98
2018-11-06T04:27:11.345Z,97338.70
2018-11-06T04:27:42.964Z,97333.60
2018-11-06T04:28:14.570Z,97330.23
2018-11-06T04:28:46.159Z,97327.30
2018-11-06T04:29:17.753Z,97331.65
2018-11-06T04:29:49.364Z,97327.39
2018-11-06T04:30:20.972Z,97329.18
2018-11-06T04:30:52.570Z,97327.06
2018-11-06T04:31:24.164Z,97326.64
2018-11-06T04:31:55.761Z,97332.62
2018-11-06T04:32:27.396Z,97335.61
2018-11-06T04:32:59.004Z,97326.72
2018-11-06T04:33:30.611Z,97333.97
2018-11-06T04:34:02.199Z,97325.45
2018-11-06T04:34:33.785Z,97330.57
2018-11-06T04:35:05.372Z,97325.45
2018-11-06T04:35:36.960Z,97319.52
2018-11-06T04:36:08.564Z,97323.45
2018-11-06T04:36:40.169Z,97321.66
2018-11-06T04:37:11.766Z,97315.27
2018-11-06T04:37:43.414Z,97322.98
2018-11-06T04:38:15.015Z,97316.17
2018-11-06T04:38:46.599Z,97322.59
2018-11-06T04:39:18.189Z,97322.68
2018-11-06T04:39:49.790Z,97320.05
2018-11-06T04:40:21.384Z,97323.50
2018-11-06T04:40:52.994Z,97332.03
2018-11-06T04:41:24.597Z,97316.69
2018-11-06T04:41:56.202Z,97322.24
2018-11-06T04:42:27.808Z,97323.10
2018-11-06T04:42:59.435Z,97321.42
2018-11-06T04:43:31.047Z,97318.86
2018-11-06T04:44:02.639Z,97324.84
2018-11-06T04:44:34.240Z,97318.09
2018-11-06T04:45:05.858Z,97321.16
2018-11-06T04:45:37.462Z,97322.81
2018-11-06T04:46:09.066Z,97313.00
2018-11-06T04:46:40.670Z,97319.45
2018-11-06T04:47:12.274Z,97327.98
2018-11-06T04:47:43.874Z,97323.28
2018-11-06T04:48:15.488Z,97322.88
2018-11-06T04:48:47.072Z,97325.86
2018-11-06T04:49:18.664Z,97325.44
2018-11-06T04:49:50.247Z,97327.56
2018-11-06T04:50:22.116Z,97325.44
2018-11-06T04:50:53.714Z,97331.83
2018-11-06T04:51:25.296Z,97323.74
2018-11-06T04:51:56.888Z,97325.09
2018-11-06T04:52:28.484Z,97319.50
2018-11-06T04:53:00.117Z,97338.66
2018-11-06T04:53:31.709Z,97330.63
2018-11-06T04:54:03.304Z,97334.05
2018-11-06T04:54:34.882Z,97334.06
2018-11-06T04:55:06.477Z,97333.22
2018-11-06T04:55:38.082Z,97331.94
2018-11-06T04:56:09.677Z,97332.38
2018-11-06T04:56:41.271Z,97327.31
2018-11-06T04:57:12.870Z,97337.12
2018-11-06T04:57:44.465Z,97335.01
2018-11-06T04:58:16.076Z,97327.84
2018-11-06T04:58:47.667Z,97334.26
2018-11-06T04:59:19.261Z,97331.27
2018-11-06T04:59:50.848Z,97332.55
2018-11-06T05:00:22.448Z,97338.08
2018-11-06T05:00:54.022Z,97332.98
2018-11-06T05:01:25.612Z,97342.35
2018-11-06T05:01:57.230Z,97336.39
2018-11-06T05:02:28.806Z,97341.09
2018-11-06T05:03:00.424Z,97349.19
2018-11-06T05:03:32.049Z,97341.11
2018-11-06T05:04:03.650Z,97354.37
2018-11-06T05:04:35.256Z,97338.63
2018-11-06T05:05:06.868Z,97348.02
2018-11-06T05:05:38.455Z,97354.01
2018-11-06T05:06:10.058Z,97350.17
2018-11-06T05:06:41.679Z,97360.87
2018-11-06T05:07:13.260Z,97362.61
2018-11-06T05:07:44.862Z,97351.12
2018-11-06T05:08:16.452Z,97360.55
2018-11-06T05:08:48.066Z,97357.17
2018-11-06T05:09:19.648Z,97362.77
2018-11-06T05:09:51.222Z,97369.58
2018-11-06T05:10:22.801Z,97375.55
2018-11-06T05:10:54.403Z,97369.65
2018-11-06T05:11:25.987Z,97367.97
2018-11-06T05:11:57.572Z,97369.70
2018-11-06T05:12:29.174Z,97374.45
2018-11-06T05:13:00.784Z,97373.19
2018-11-06T05:13:32.414Z,97374.46
2018-11-06T05:14:04.013Z,97377.90
2018-11-06T05:14:35.604Z,97377.97
2018-11-06T05:15:07.188Z,97375.83
2018-11-06T05:15:38.789Z,97380.12
2018-11-06T05:16:10.397Z,97372.50
2018-11-06T05:16:41.983Z,97379.33
2018-11-06T05:17:13.572Z,97379.75
2018-11-06T05:17:45.166Z,97381.92
2018-11-06T05:18:16.752Z,97380.27
2018-11-06T05:18:48.340Z,97387.96
2018-11-06T05:19:19.935Z,97380.30
2018-11-06T05:19:51.524Z,97386.28
2018-11-06T05:20:23.111Z,97383.80
2018-11-06T05:20:54.709Z,97383.35
2018-11-06T05:21:26.322Z,97375.30
2018-11-06T05:21:57.926Z,97376.19
2018-11-06T05:22:29.529Z,97384.33
2018-11-06T05:23:01.116Z,97381.34
2018-11-06T05:23:32.746Z,97377.52
2018-11-06T05:24:04.364Z,97385.19
2018-11-06T05:24:35.955Z,97389.02
2018-11-06T05:25:07.553Z,97378.43
2018-11-06T05:25:39.150Z,97386.09
2018-11-06T05:26:10.752Z,97387.80
2018-11-06T05:26:42.335Z,97383.98
2018-11-06T05:27:13.942Z,97383.49
2018-11-06T05:27:45.549Z,97395.46
2018-11-06T05:28:17.136Z,97389.49
2018-11-06T05:28:48.753Z,97396.67
2018-11-06T05:29:20.374Z,97391.58
2018-11-06T05:29:51.964Z,97388.16
2018-11-06T05:30:23.565Z,97397.52
2018-11-06T05:30:55.166Z,97385.58
2018-11-06T05:31:26.746Z,97389.49
2018-11-06T05:31:58.332Z,97393.66
2018-11-06T05:32:29.934Z,97396.59
2018-11-06T05:33:01.637Z,97391.04
2018-11-06T05:33:33.150Z,97395.71
2018-11-06T05:34:04.789Z,97369.99
2018-11-06T05:34:36.411Z,97406.73
2018-11-06T05:35:08.007Z,97396.92
2018-11-06T05:35:39.602Z,97405.86
2018-11-06T05:36:11.186Z,97399.81
2018-11-06T05:36:42.772Z,97401.50
2018-11-06T05:37:14.355Z,97399.78
2018-11-06T05:37:45.941Z,97413.36
2018-11-06T05:38:17.542Z,97405.67
2018-11-06T05:38:49.168Z,97412.90
2018-11-06T05:39:20.831Z,97410.33
2018-11-06T05:39:52.410Z,97415.38
2018-11-06T05:40:23.996Z,97418.34
2018-11-06T05:40:55.634Z,97415.77
2018-11-06T05:41:27.216Z,97416.55
2018-11-06T05:41:58.822Z,97416.48
2018-11-06T05:42:30.416Z,97421.14
2018-11-06T05:43:02.023Z,97418.58
2018-11-06T05:43:33.630Z,97419.84
2018-11-06T05:44:05.325Z,97426.63
2018-11-06T05:44:36.897Z,97424.05
2018-11-06T05:45:08.506Z,97426.59
2018-11-06T05:45:40.189Z,97427.81
2018-11-06T05:46:11.713Z,97428.21
2018-11-06T05:46:43.299Z,97433.70
2018-11-06T05:47:14.898Z,97434.10
2018-11-06T05:47:46.493Z,97427.69
2018-11-06T05:48:18.081Z,97434.03
2018-11-06T05:48:49.682Z,97432.30
2018-11-06T05:49:21.269Z,97438.20
2018-11-06T05:49:52.859Z,97431.79
2018-11-06T05:50:24.450Z,97433.89
2018-11-06T05:50:56.048Z,97435.96
2018-11-06T05:51:27.636Z,97437.64
2018-11-06T05:51:59.239Z,97433.37
2018-11-06T05:52:30.817Z,97436.70
2018-11-06T05:53:02.461Z,97431.58
2018-11-06T05:53:34.021Z,97437.48
2018-11-06T05:54:05.649Z,97437.48
2018-11-06T05:54:37.254Z,97432.77
2018-11-06T05:55:08.853Z,97433.20
2018-11-06T05:55:40.429Z,97433.17
2018-11-06T05:56:12.030Z,97434.88
2018-11-06T05:56:43.619Z,97430.97
2018-11-06T05:57:15.217Z,97434.37
2018-11-06T05:57:46.815Z,97426.70
2018-11-06T05:58:18.411Z,97419.86
2018-11-06T05:58:50.015Z,97428.33
2018-11-06T05:59:21.619Z,97427.00
2018-11-06T05:59:53.198Z,97423.12
2018-11-06T06:00:24.807Z,97428.29
2018-11-06T06:00:56.412Z,97424.37
2018-11-06T06:01:28.010Z,97425.66
2018-11-06T06:01:59.597Z,97415.01
2018-11-06T06:02:31.184Z,97420.95
2018-11-06T06:03:02.764Z,97419.66
2018-11-06T06:03:34.348Z,97424.37
2018-11-06T06:04:05.975Z,97419.70
2018-11-06T06:04:37.573Z,97418.83
2018-11-06T06:05:09.191Z,97403.56
2018-11-06T06:05:40.793Z,97415.84
2018-11-06T06:06:12.393Z,97414.56
2018-11-06T06:06:43.998Z,97409.05
2018-11-06T06:07:15.588Z,97411.19
2018-11-06T06:07:47.200Z,97406.49
2018-11-06T06:08:18.783Z,97410.33
2018-11-06T06:08:50.371Z,97411.19
2018-11-06T06:09:21.999Z,97410.40
2018-11-06T06:09:53.599Z,97409.13
2018-11-06T06:10:25.189Z,97405.72
2018-11-06T06:10:56.813Z,97400.17
2018-11-06T06:11:28.408Z,97406.14
2018-11-06T06:11:59.986Z,97411.26
2018-11-06T06:12:31.588Z,97409.63
2018-11-06T06:13:03.186Z,97407.95
2018-11-06T06:13:34.771Z,97410.92
2018-11-06T06:14:06.398Z,97408.81
2018-11-06T06:14:37.988Z,97405.80
2018-11-06T06:15:09.575Z,97404.09
2018-11-06T06:15:41.157Z,97406.67
2018-11-06T06:16:12.748Z,97394.25
2018-11-06T06:16:44.360Z,97405.48
2018-11-06T06:17:15.969Z,97412.64
2018-11-06T06:17:47.567Z,97410.09
2018-11-06T06:18:19.172Z,97412.66
2018-11-06T06:18:50.759Z,97413.94
2018-11-06T06:19:22.386Z,97407.62
2018-11-06T06:19:53.980Z,97408.45
2018-11-06T06:20:25.585Z,97411.47
2018-11-06T06:20:57.190Z,97414.88
2018-11-06T06:21:28.792Z,97413.61
2018-11-06T06:22:00.389Z,97409.41
2018-11-06T06:22:32.039Z,97409.83
2018-11-06T06:23:03.595Z,97411.54
2018-11-06T06:23:35.198Z,97409.84
2018-11-06T06:24:06.784Z,97408.14
2018-11-06T06:24:38.418Z,97407.72
2018-11-06T06:25:10.003Z,97417.11
2018-11-06T06:25:41.598Z,97411.20
2018-11-06T06:26:13.193Z,97412.50
2018-11-06T06:26:44.783Z,97409.16
2018-11-06T06:27:16.371Z,97406.98
2018-11-06T06:27:47.970Z,97407.88